Time;durP1;ratioP1;P1;durP2;ratioP2;P2;SDS_P1;SDS_P2;PMS_P1;PMS_P2;Temp;Humidity;BMP_temperature;BMP_pressure;BME280_temperature;BME280_humidity;BME280_pressure;Samples;Min_cycle;Max_cycle;Signal;HPM_P1;HPM_P2
2022/02/03 00:00:18;;;;;;;11.02;4.82;;;;;;;;;;5066071;28;20045;-79
2022/02/03 00:02:55;;;;;;;9.50;4.57;;;;;;;;;;5077583;28;20059;-81
2022/02/03 00:05:31;;;;;;;12.13;5.40;;;;;;;;;;5080194;28;20037;-80
2022/02/03 00:08:05;;;;;;;12.75;6.10;;;;;;;;;;5081642;28;20135;-80
2022/02/03 00:22:05;;;;;;;10.77;5.78;;;;;;;;;;5080090;28;20055;-80
2022/02/03 00:24:46;;;;;;;14.35;6.03;;;;;;;;;;5080874;28;20055;-80
2022/02/03 00:27:37;;;;;;;12.35;4.95;;;;;;;;;;5080646;28;20045;-80
2022/02/03 00:30:10;;;;;;;10.73;4.78;;;;;;;;;;5080954;28;20049;-80
2022/02/03 00:38:39;;;;;;;11.95;4.78;;;;;;;;;;5080903;28;20449;-80
2022/02/03 00:49:26;;;;;;;10.15;5.57;;;;;;;;;;5081032;28;20059;-80
2022/02/03 00:51:58;;;;;;;;;;;;;;;;;;5081619;28;20086;-80
2022/02/03 00:54:25;;;;;;;;;;;;;;;;;;5082278;28;19942;-80
2022/02/03 00:56:54;;;;;;;12.75;5.38;;;;;;;;;;5081045;28;20307;-80
2022/02/03 00:59:31;;;;;;;12.05;5.53;;;;;;;;;;5082620;28;20105;-80
2022/02/03 01:02:00;;;;;;;11.60;5.50;;;;;;;;;;5081921;28;20128;-80
2022/02/03 01:04:31;;;;;;;11.18;5.53;;;;;;;;;;5082519;28;20125;-80
2022/02/03 01:06:59;;;;;;;12.10;5.50;;;;;;;;;;5081695;28;20104;-80
2022/02/03 01:09:29;;;;;;;12.85;6.38;;;;;;;;;;5081604;28;20052;-80
2022/02/03 01:12:05;;;;;;;12.63;6.28;;;;;;;;;;5082878;28;20048;-80
2022/02/03 01:14:42;;;;;;;16.52;6.35;;;;;;;;;;5083274;28;20449;-80
2022/02/03 01:17:23;;;;;;;15.07;6.78;;;;;;;;;;5083467;28;20051;-82
2022/02/03 01:34:11;;;;;;;12.73;6.53;;;;;;;;;;5075369;28;20096;-80
2022/02/03 01:45:06;;;;;;;9.85;5.07;;;;;;;;;;5075462;28;20055;-81
2022/02/03 01:47:49;;;;;;;10.02;5.28;;;;;;;;;;5075107;28;20483;-80
2022/02/03 01:53:06;;;;;;;9.43;4.35;;;;;;;;;;5075294;28;20114;-80
2022/02/03 01:55:33;;;;;;;10.50;5.13;;;;;;;;;;5073461;28;20045;-80
2022/02/03 01:58:04;;;;;;;9.38;4.88;;;;;;;;;;5074311;28;20049;-80
2022/02/03 02:00:37;;;;;;;11.15;4.65;;;;;;;;;;5074467;28;20040;-81
2022/02/03 02:03:15;;;;;;;8.48;4.55;;;;;;;;;;5074800;28;20049;-81
2022/02/03 02:06:06;;;;;;;10.98;4.97;;;;;;;;;;5074647;28;20048;-80
2022/02/03 02:08:43;;;;;;;10.63;4.97;;;;;;;;;;5073854;28;20090;-80
2022/02/03 02:11:34;;;;;;;10.07;5.35;;;;;;;;;;5074387;28;20099;-80
2022/02/03 02:14:25;;;;;;;12.23;5.53;;;;;;;;;;5074600;28;20064;-80
2022/02/03 02:17:40;;;;;;;12.70;6.43;;;;;;;;;;5074277;28;20052;-80
2022/02/03 02:36:51;;;;;;;14.25;7.57;;;;;;;;;;5074067;28;20049;-81
2022/02/03 02:39:53;;;;;;;8.73;5.28;;;;;;;;;;5049536;28;20079;-81
2022/02/03 02:42:35;;;;;;;10.10;5.50;;;;;;;;;;5092896;28;20092;-80
2022/02/03 02:45:09;;;;;;;9.00;5.13;;;;;;;;;;5095434;28;20079;-81
2022/02/03 02:47:52;;;;;;;8.82;4.80;;;;;;;;;;5096402;28;20075;-81
2022/02/03 02:50:27;;;;;;;10.70;5.47;;;;;;;;;;5077578;28;20052;-81
2022/02/03 02:53:11;;;;;;;10.93;4.65;;;;;;;;;;5076937;28;20407;-81
2022/02/03 02:55:55;;;;;;;10.75;5.25;;;;;;;;;;5076352;28;20057;-81
2022/02/03 02:58:52;;;;;;;10.93;5.05;;;;;;;;;;5075970;28;20469;-81
2022/02/03 03:29:47;;;;;;;10.57;5.90;;;;;;;;;;5074957;28;20059;-81
2022/02/03 03:32:38;;;;;;;12.10;5.50;;;;;;;;;;5075425;28;20492;-81
2022/02/03 03:35:29;;;;;;;14.63;6.65;;;;;;;;;;5074496;28;20055;-81
2022/02/03 03:37:59;;;;;;;13.73;7.35;;;;;;;;;;5074024;28;20407;-81
2022/02/03 03:40:30;;;;;;;13.30;6.57;;;;;;;;;;5074243;28;20045;-81
2022/02/03 03:43:03;;;;;;;15.45;7.20;;;;;;;;;;5074240;28;20515;-81
2022/02/03 03:45:31;;;;;;;14.90;6.95;;;;;;;;;;5074057;28;20110;-81
2022/02/03 03:48:02;;;;;;;15.13;7.80;;;;;;;;;;5073946;28;20098;-81
2022/02/03 03:50:30;;;;;;;15.40;7.75;;;;;;;;;;5073965;28;20491;-81
2022/02/03 03:53:03;;;;;;;12.52;6.00;;;;;;;;;;5074184;28;20132;-81
2022/02/03 03:55:41;;;;;;;11.20;5.40;;;;;;;;;;5075113;28;20052;-81
2022/02/03 04:28:53;;;;;;;11.73;5.30;;;;;;;;;;5069566;28;20090;-81
2022/02/03 04:30:47;;;;;;;11.77;5.97;;;;;;;;;;5035553;28;20481;-62
2022/02/03 04:42:15;;;;;;;13.85;6.00;;;;;;;;;;5034911;28;20091;-62
2022/02/03 04:51:20;;;;;;;9.65;5.05;;;;;;;;;;5035058;28;20094;-62
2022/02/03 04:55:01;;;;;;;8.57;5.22;;;;;;;;;;5034754;28;20091;-62
2022/02/03 05:01:14;;;;;;;10.40;3.85;;;;;;;;;;4992685;28;20047;-63
2022/02/03 05:04:07;;;;;;;7.50;3.35;;;;;;;;;;5034008;28;20057;-63
2022/02/03 05:06:57;;;;;;;8.00;4.07;;;;;;;;;;5034184;28;20103;-63
2022/02/03 05:09:55;;;;;;;6.43;3.53;;;;;;;;;;5034278;28;20132;-64
2022/02/03 05:12:48;;;;;;;8.95;3.45;;;;;;;;;;5034785;28;20049;-63
2022/02/03 05:15:44;;;;;;;7.03;3.80;;;;;;;;;;5034496;28;20556;-63
2022/02/03 05:43:33;;;;;;;9.68;3.97;;;;;;;;;;5011952;28;20056;-62
2022/02/03 05:46:45;;;;;;;9.10;3.53;;;;;;;;;;5029638;28;20081;-62
2022/02/03 05:55:28;;;;;;;8.40;3.88;;;;;;;;;;5023331;28;20383;-62
2022/02/03 06:01:09;;;;;;;7.97;4.25;;;;;;;;;;5033789;28;20520;-61
2022/02/03 06:04:03;;;;;;;7.63;3.80;;;;;;;;;;5033420;28;20052;-61
2022/02/03 06:09:35;;;;;;;8.60;4.47;;;;;;;;;;5033355;28;20154;-61
2022/02/03 06:12:40;;;;;;;10.57;4.80;;;;;;;;;;5033874;28;20395;-61
2022/02/03 06:15:16;;;;;;;9.23;4.03;;;;;;;;;;5033530;28;20095;-61
2022/02/03 06:20:57;;;;;;;9.00;3.83;;;;;;;;;;5033070;28;20049;-61
2022/02/03 06:23:28;;;;;;;9.60;3.80;;;;;;;;;;5033121;28;20053;-61
2022/02/03 06:28:46;;;;;;;11.38;4.50;;;;;;;;;;5032970;28;20152;-61
2022/02/03 06:31:14;;;;;;;7.93;3.75;;;;;;;;;;5032945;28;20065;-61
2022/02/03 06:33:41;;;;;;;10.07;4.35;;;;;;;;;;5033441;28;20050;-61
2022/02/03 06:36:08;;;;;;;9.10;4.28;;;;;;;;;;5032946;28;20053;-60
2022/02/03 06:38:35;;;;;;;8.43;4.00;;;;;;;;;;5032743;28;20045;-61
2022/02/03 06:41:03;;;;;;;8.52;4.05;;;;;;;;;;5032473;28;20060;-60
2022/02/03 06:43:31;;;;;;;8.50;3.85;;;;;;;;;;5032616;28;20144;-61
2022/02/03 06:46:02;;;;;;;8.85;3.65;;;;;;;;;;5033077;28;20387;-62
2022/02/03 06:48:32;;;;;;;;;;;;;;;;;;5033317;28;20057;-61
2022/02/03 06:51:07;;;;;;;9.30;4.03;;;;;;;;;;5032698;28;19925;-61
2022/02/03 06:53:38;;;;;;;9.30;3.58;;;;;;;;;;5032969;28;20220;-61
2022/02/03 06:56:09;;;;;;;7.18;3.40;;;;;;;;;;5033020;28;20140;-60
2022/02/03 06:58:41;;;;;;;6.72;3.10;;;;;;;;;;5032983;28;20541;-61
2022/02/03 07:01:14;;;;;;;8.15;3.10;;;;;;;;;;5032612;28;20045;-62
2022/02/03 07:03:51;;;;;;;7.47;3.65;;;;;;;;;;5032646;28;20049;-62
2022/02/03 07:06:18;;;;;;;9.32;3.50;;;;;;;;;;5032612;28;20502;-61
2022/02/03 07:08:47;;;;;;;6.43;3.47;;;;;;;;;;5032375;28;20140;-62
2022/02/03 07:11:17;;;;;;;6.45;2.83;;;;;;;;;;5032979;28;20392;-61
2022/02/03 07:13:45;;;;;;;5.78;3.15;;;;;;;;;;5032781;28;20487;-62
2022/02/03 07:16:12;;;;;;;6.40;3.30;;;;;;;;;;5032475;28;20085;-61
2022/02/03 07:18:39;;;;;;;6.70;3.15;;;;;;;;;;5032593;28;20136;-62
2022/02/03 07:21:11;;;;;;;7.95;3.13;;;;;;;;;;5032199;28;20104;-61
2022/02/03 07:23:39;;;;;;;7.80;3.20;;;;;;;;;;5032400;28;20068;-61
2022/02/03 07:26:06;;;;;;;6.22;3.03;;;;;;;;;;5032229;28;20053;-62
2022/02/03 07:28:34;;;;;;;7.15;3.63;;;;;;;;;;5032423;28;20048;-62
2022/02/03 07:31:01;;;;;;;10.30;4.22;;;;;;;;;;5032752;28;20089;-61
2022/02/03 07:33:30;;;;;;;8.00;3.85;;;;;;;;;;5032680;28;20050;-62
2022/02/03 07:35:58;;;;;;;8.15;4.13;;;;;;;;;;5032338;28;20049;-61
2022/02/03 07:38:26;;;;;;;8.10;4.45;;;;;;;;;;5032627;28;20061;-61
2022/02/03 07:40:53;;;;;;;11.90;4.32;;;;;;;;;;5032267;28;20054;-61
2022/02/03 07:43:21;;;;;;;10.43;4.63;;;;;;;;;;5032009;28;20132;-61
2022/02/03 07:45:49;;;;;;;10.32;4.20;;;;;;;;;;5032134;28;20065;-61
2022/02/03 07:48:19;;;;;;;9.40;4.70;;;;;;;;;;5031860;28;20060;-61
2022/02/03 07:50:46;;;;;;;9.82;5.07;;;;;;;;;;5032474;28;20410;-63
2022/02/03 07:53:13;;;;;;;10.73;4.57;;;;;;;;;;5034546;28;20053;-62
2022/02/03 07:55:42;;;;;;;18.30;8.52;;;;;;;;;;5036548;28;20104;-62
2022/02/03 07:58:09;;;;;;;11.18;5.72;;;;;;;;;;5036309;28;20092;-61
2022/02/03 08:00:36;;;;;;;12.05;4.18;;;;;;;;;;5036215;28;20111;-61
2022/02/03 08:03:09;;;;;;;9.25;4.68;;;;;;;;;;5035676;28;20508;-61
2022/02/03 08:05:37;;;;;;;9.07;4.35;;;;;;;;;;5035714;28;20054;-61
2022/02/03 08:08:12;;;;;;;10.43;4.82;;;;;;;;;;5033970;28;20084;-61
2022/02/03 08:10:43;;;;;;;8.57;4.43;;;;;;;;;;5033812;28;20065;-61
2022/02/03 08:13:17;;;;;;;11.13;5.22;;;;;;;;;;5034149;28;20345;-61
2022/02/03 08:15:44;;;;;;;9.45;4.35;;;;;;;;;;5034025;28;20057;-61
2022/02/03 08:18:16;;;;;;;9.35;4.32;;;;;;;;;;5034174;28;20056;-61
2022/02/03 08:20:50;;;;;;;10.70;4.30;;;;;;;;;;5033864;28;20099;-61
2022/02/03 08:23:53;;;;;;;9.88;5.30;;;;;;;;;;5033896;28;20075;-63
2022/02/03 08:26:31;;;;;;;9.30;4.90;;;;;;;;;;5033659;28;20049;-61
2022/02/03 08:29:15;;;;;;;10.25;5.00;;;;;;;;;;5033414;28;20076;-61
2022/02/03 08:31:51;;;;;;;9.60;4.88;;;;;;;;;;5033939;28;20301;-61
2022/02/03 08:34:32;;;;;;;11.13;4.72;;;;;;;;;;5033535;28;20144;-62
2022/02/03 08:36:59;;;;;;;;;;;;;;;;;;5033702;28;20057;-61
2022/02/03 08:39:29;;;;;;;10.10;4.40;;;;;;;;;;5033743;28;19920;-61
2022/02/03 08:41:57;;;;;;;9.60;4.60;;;;;;;;;;5033192;28;20049;-63
2022/02/03 08:44:25;;;;;;;8.63;4.53;;;;;;;;;;5033268;28;20226;-61
2022/02/03 08:46:52;;;;;;;9.05;4.30;;;;;;;;;;5032811;28;20065;-66
2022/02/03 08:49:22;;;;;;;7.97;4.30;;;;;;;;;;5032936;28;20053;-60
2022/02/03 08:51:50;;;;;;;9.40;4.13;;;;;;;;;;5033422;28;20239;-58
2022/02/03 08:54:17;;;;;;;8.25;4.22;;;;;;;;;;5033052;28;20055;-59
2022/02/03 08:56:50;;;;;;;9.75;4.20;;;;;;;;;;5033429;28;20084;-59
2022/02/03 08:59:41;;;;;;;7.55;4.03;;;;;;;;;;5033589;28;20422;-60
2022/02/03 09:35:48;;;;;;;8.07;4.03;;;;;;;;;;5032187;28;20067;-62
2022/02/03 09:52:26;;;;;;;6.60;2.90;;;;;;;;;;5032005;28;20713;-63
2022/02/03 09:57:50;;;;;;;6.70;3.15;;;;;;;;;;5024776;28;20568;-63
2022/02/03 10:00:39;;;;;;;5.57;2.60;;;;;;;;;;5031676;28;20053;-64
2022/02/03 10:03:13;;;;;;;5.35;2.47;;;;;;;;;;5032066;28;20136;-64
2022/02/03 10:05:55;;;;;;;6.35;3.10;;;;;;;;;;5032111;28;20469;-64
2022/02/03 10:08:26;;;;;;;6.53;2.80;;;;;;;;;;5032153;28;20053;-63
2022/02/03 10:11:11;;;;;;;4.30;2.58;;;;;;;;;;5032178;28;20049;-64
2022/02/03 10:13:42;;;;;;;4.10;2.08;;;;;;;;;;5031336;28;20445;-63
2022/02/03 10:16:09;;;;;;;5.45;2.60;;;;;;;;;;5030716;28;20469;-64
2022/02/03 10:18:37;;;;;;;5.10;2.90;;;;;;;;;;5031663;28;20049;-63
2022/02/03 10:21:06;;;;;;;3.72;2.00;;;;;;;;;;5031592;28;20054;-60
2022/02/03 10:23:52;;;;;;;4.53;2.20;;;;;;;;;;5031097;28;20141;-62
2022/02/03 10:26:19;;;;;;;4.05;1.98;;;;;;;;;;5031680;28;20053;-61
2022/02/03 10:28:53;;;;;;;5.03;2.40;;;;;;;;;;5031236;28;20057;-64
2022/02/03 10:31:25;;;;;;;5.63;2.97;;;;;;;;;;5031429;28;20404;-62
2022/02/03 10:34:05;;;;;;;4.97;2.13;;;;;;;;;;5030905;28;20072;-63
2022/02/03 10:36:47;;;;;;;5.20;2.55;;;;;;;;;;5031083;28;20277;-62
2022/02/03 10:40:02;;;;;;;4.80;2.17;;;;;;;;;;5031354;28;20045;-61
2022/02/03 10:51:20;;;;;;;6.20;2.55;;;;;;;;;;4969564;28;20054;-63
2022/02/03 10:54:26;;;;;;;4.38;2.33;;;;;;;;;;5026920;28;20050;-63
2022/02/03 10:57:16;;;;;;;4.35;2.65;;;;;;;;;;5030846;28;20482;-63
2022/02/03 11:00:09;;;;;;;4.15;2.35;;;;;;;;;;5031161;28;20053;-63
2022/02/03 11:08:16;;;;;;;5.00;2.50;;;;;;;;;;5005568;28;20049;-64
2022/02/03 11:10:50;;;;;;;5.13;2.58;;;;;;;;;;5030614;28;20057;-64
2022/02/03 11:13:20;;;;;;;5.90;2.92;;;;;;;;;;5030711;28;20057;-64
2022/02/03 11:15:51;;;;;;;4.05;2.00;;;;;;;;;;5030719;28;20406;-66
2022/02/03 11:18:18;;;;;;;;;;;;;;;;;;5030572;28;20458;-62
2022/02/03 11:20:45;;;;;;;3.15;1.80;;;;;;;;;;5030339;28;19921;-63
2022/02/03 11:23:30;;;;;;;3.22;1.73;;;;;;;;;;5030493;28;20092;-66
2022/02/03 11:26:10;;;;;;;3.50;1.80;;;;;;;;;;5030027;28;20064;-66
2022/02/03 11:28:59;;;;;;;4.45;2.33;;;;;;;;;;5029645;28;20053;-65
2022/02/03 11:32:06;;;;;;;3.50;1.85;;;;;;;;;;5030207;28;20060;-61
2022/02/03 11:37:41;;;;;;;6.40;1.83;;;;;;;;;;5026147;28;20079;-66
2022/02/03 11:46:16;;;;;;;3.70;1.80;;;;;;;;;;5029475;28;20056;-59
2022/02/03 12:14:41;;;;;;;4.70;2.15;;;;;;;;;;4998602;28;20041;-60
2022/02/03 12:17:36;;;;;;;5.35;2.50;;;;;;;;;;5029587;28;20046;-58
2022/02/03 12:20:13;;;;;;;4.25;2.10;;;;;;;;;;5029679;28;20414;-60
2022/02/03 12:22:56;;;;;;;4.55;2.03;;;;;;;;;;5029367;28;20209;-60
2022/02/03 12:25:45;;;;;;;4.75;2.33;;;;;;;;;;5029705;28;20053;-60
2022/02/03 12:28:21;;;;;;;5.05;2.50;;;;;;;;;;5029709;28;20077;-59
2022/02/03 12:39:18;;;;;;;5.95;2.90;;;;;;;;;;4968416;28;20140;-59
2022/02/03 12:42:00;;;;;;;5.80;2.90;;;;;;;;;;5007921;28;20491;-60
2022/02/03 12:44:28;;;;;;;10.63;4.55;;;;;;;;;;5033408;28;20471;-58
2022/02/03 12:47:02;;;;;;;10.05;3.92;;;;;;;;;;5033313;28;20184;-59
2022/02/03 12:49:30;;;;;;;10.05;5.22;;;;;;;;;;5032891;28;20148;-59
2022/02/03 12:51:59;;;;;;;8.18;2.80;;;;;;;;;;5033126;28;20454;-59
2022/02/03 12:54:26;;;;;;;5.10;2.60;;;;;;;;;;5032686;28;20439;-59
2022/02/03 12:57:00;;;;;;;5.22;2.20;;;;;;;;;;5032929;28;20053;-57
2022/02/03 12:59:29;;;;;;;4.00;2.50;;;;;;;;;;5032741;28;20053;-59
2022/02/03 13:01:56;;;;;;;3.78;1.92;;;;;;;;;;5032298;28;20064;-59
2022/02/03 13:04:23;;;;;;;4.93;2.30;;;;;;;;;;5032753;28;20248;-60
2022/02/03 13:07:01;;;;;;;5.03;2.00;;;;;;;;;;5033205;28;20054;-60
2022/02/03 13:09:38;;;;;;;3.92;1.75;;;;;;;;;;5032470;28;20095;-59
2022/02/03 13:12:15;;;;;;;3.42;1.60;;;;;;;;;;5032775;28;20054;-60
2022/02/03 13:14:49;;;;;;;4.28;2.00;;;;;;;;;;5032911;28;20064;-60
2022/02/03 13:17:24;;;;;;;6.20;2.35;;;;;;;;;;5032524;28;20509;-60
2022/02/03 13:19:57;;;;;;;4.95;1.90;;;;;;;;;;5032310;28;20144;-60
2022/02/03 13:22:32;;;;;;;5.78;2.67;;;;;;;;;;5032623;28;20418;-60
2022/02/03 13:25:08;;;;;;;4.65;1.80;;;;;;;;;;5032403;28;20053;-60
2022/02/03 13:27:45;;;;;;;3.67;1.60;;;;;;;;;;5032331;28;20052;-58
2022/02/03 13:30:39;;;;;;;3.45;1.42;;;;;;;;;;5032146;28;20049;-60
2022/02/03 13:33:07;;;;;;;3.55;1.33;;;;;;;;;;5031916;28;20141;-59
2022/02/03 13:35:48;;;;;;;3.78;1.67;;;;;;;;;;5032184;28;20141;-59
2022/02/03 13:38:24;;;;;;;4.07;1.90;;;;;;;;;;5032028;28;20096;-60
2022/02/03 13:41:07;;;;;;;6.38;1.40;;;;;;;;;;5032128;28;20068;-59
2022/02/03 13:43:39;;;;;;;3.38;1.40;;;;;;;;;;5031758;28;20054;-59
2022/02/03 13:46:06;;;;;;;2.80;1.30;;;;;;;;;;5031783;28;20093;-58
2022/02/03 13:48:33;;;;;;;11.57;3.58;;;;;;;;;;5031765;28;20417;-60
2022/02/03 13:51:02;;;;;;;4.05;1.33;;;;;;;;;;5031798;28;20049;-60
2022/02/03 13:53:36;;;;;;;4.82;1.60;;;;;;;;;;5031797;28;20491;-60
2022/02/03 14:21:39;;;;;;;8.20;3.08;;;;;;;;;;5031288;28;20057;-60
2022/02/03 14:27:14;;;;;;;6.45;3.22;;;;;;;;;;5028528;28;20533;-60
2022/02/03 14:29:46;;;;;;;7.00;3.03;;;;;;;;;;5030624;28;20748;-60
2022/02/03 14:32:16;;;;;;;6.00;3.30;;;;;;;;;;5030228;28;20115;-60
2022/02/03 14:34:43;;;;;;;8.93;3.08;;;;;;;;;;5030189;28;20111;-60
2022/02/03 14:37:16;;;;;;;7.38;3.30;;;;;;;;;;5030201;28;20140;-60
2022/02/03 14:40:03;;;;;;;6.43;3.20;;;;;;;;;;5028186;28;20057;-60
2022/02/03 14:42:34;;;;;;;6.25;3.40;;;;;;;;;;5030257;28;20046;-60
2022/02/03 14:45:03;;;;;;;7.28;3.50;;;;;;;;;;5025335;28;20060;-59
2022/02/03 14:47:32;;;;;;;7.72;3.25;;;;;;;;;;5030153;28;20050;-60
2022/02/03 14:50:01;;;;;;;7.20;3.20;;;;;;;;;;5030303;28;20057;-56
2022/02/03 14:52:32;;;;;;;10.18;4.50;;;;;;;;;;5026647;28;20092;-60
2022/02/03 14:58:04;;;;;;;6.18;3.40;;;;;;;;;;5029737;28;20064;-59
2022/02/03 15:00:34;;;;;;;4.95;2.30;;;;;;;;;;5029614;28;20523;-61
2022/02/03 15:03:01;;;;;;;5.03;2.10;;;;;;;;;;5029538;28;20048;-59
2022/02/03 15:05:31;;;;;;;3.78;1.83;;;;;;;;;;5030051;28;20059;-61
2022/02/03 15:07:59;;;;;;;6.30;2.70;;;;;;;;;;5030194;28;20053;-59
2022/02/03 15:10:42;;;;;;;12.23;4.00;;;;;;;;;;5030311;28;20140;-58
2022/02/03 15:13:14;;;;;;;8.70;2.63;;;;;;;;;;5029714;28;20053;-58
2022/02/03 15:15:42;;;;;;;5.28;2.58;;;;;;;;;;5029909;28;20049;-59
2022/02/03 15:18:09;;;;;;;3.85;1.80;;;;;;;;;;5029513;28;20137;-58
2022/02/03 15:20:36;;;;;;;5.55;1.80;;;;;;;;;;5030472;28;20107;-58
2022/02/03 15:23:04;;;;;;;8.27;2.70;;;;;;;;;;5029625;28;20055;-59
2022/02/03 15:25:31;;;;;;;5.65;2.03;;;;;;;;;;5029697;28;20045;-58
2022/02/03 15:27:58;;;;;;;4.88;2.20;;;;;;;;;;5029746;28;20075;-60
2022/02/03 15:30:25;;;;;;;5.65;2.33;;;;;;;;;;5029661;28;20079;-58
2022/02/03 15:32:54;;;;;;;5.82;2.22;;;;;;;;;;5029373;28;20061;-59
2022/02/03 15:35:26;;;;;;;4.47;1.80;;;;;;;;;;5029513;28;20131;-59
2022/02/03 15:37:54;;;;;;;6.38;1.85;;;;;;;;;;5029663;28;20050;-59
2022/02/03 15:40:25;;;;;;;5.10;2.30;;;;;;;;;;5030328;28;20136;-65
2022/02/03 15:42:59;;;;;;;3.60;1.95;;;;;;;;;;5029891;28;20140;-59
2022/02/03 15:45:26;;;;;;;3.53;1.70;;;;;;;;;;5029867;28;20487;-58
2022/02/03 15:47:56;;;;;;;5.85;2.78;;;;;;;;;;5029492;28;20092;-58
2022/02/03 16:13:13;;;;;;;;;;;;;;;;;;5009303;28;20045;-58
2022/02/03 16:18:20;;;;;;;7.97;3.10;;;;;;;;;;5022582;28;20056;-59
2022/02/03 16:20:55;;;;;;;10.70;4.13;;;;;;;;;;5033380;28;20060;-59
2022/02/03 16:23:54;;;;;;;6.82;3.67;;;;;;;;;;5026696;28;20676;-59
2022/02/03 16:40:49;;;;;;;7.68;4.05;;;;;;;;;;5027913;28;20135;-59
2022/02/03 16:51:28;;;;;;;7.95;4.25;;;;;;;;;;5033106;28;20084;-59
2022/02/03 16:54:00;;;;;;;8.30;4.47;;;;;;;;;;5032426;28;20061;-61
2022/02/03 16:56:29;;;;;;;10.63;5.40;;;;;;;;;;5033140;28;20088;-59
2022/02/03 16:58:56;;;;;;;10.50;5.43;;;;;;;;;;5032980;28;20061;-62
2022/02/03 17:01:23;;;;;;;9.45;5.40;;;;;;;;;;5032587;28;20053;-59
2022/02/03 17:03:50;;;;;;;9.45;4.57;;;;;;;;;;5032404;28;20088;-59
2022/02/03 17:06:17;;;;;;;11.40;5.53;;;;;;;;;;5033207;28;20049;-60
2022/02/03 17:08:44;;;;;;;18.58;9.68;;;;;;;;;;5032495;28;20403;-58
2022/02/03 17:11:12;;;;;;;11.00;6.28;;;;;;;;;;5032752;28;20529;-60
2022/02/03 17:13:39;;;;;;;10.57;5.00;;;;;;;;;;5032772;28;20068;-60
2022/02/03 17:16:07;;;;;;;10.60;5.20;;;;;;;;;;5032429;28;20045;-60
2022/02/03 17:18:34;;;;;;;7.85;4.75;;;;;;;;;;5033073;28;20558;-59
2022/02/03 17:21:01;;;;;;;10.40;4.93;;;;;;;;;;5032825;28;20058;-58
2022/02/03 17:23:28;;;;;;;12.68;5.35;;;;;;;;;;5032817;28;20115;-59
2022/02/03 17:26:06;;;;;;;8.70;4.88;;;;;;;;;;5032502;28;20478;-62
2022/02/03 17:28:41;;;;;;;13.88;5.72;;;;;;;;;;5032423;28;20076;-60
2022/02/03 17:31:14;;;;;;;10.77;5.78;;;;;;;;;;5032534;28;20136;-59
2022/02/03 18:07:33;;;;;;;10.65;5.80;;;;;;;;;;5030892;28;20192;-59
2022/02/03 18:10:07;;;;;;;13.73;5.90;;;;;;;;;;5029416;28;20068;-60
2022/02/03 18:37:52;;;;;;;13.60;6.00;;;;;;;;;;5030323;28;20521;-59
2022/02/03 18:46:16;;;;;;;13.30;8.38;;;;;;;;;;5030864;28;20053;-60
2022/02/03 18:49:48;;;;;;;15.35;7.72;;;;;;;;;;5030542;28;20056;-61
2022/02/03 18:52:13;;;;;;;15.77;8.35;;;;;;;;;;5030781;28;20526;-57
2022/02/03 18:57:33;;;;;;;16.75;9.23;;;;;;;;;;5030187;28;20300;-59
2022/02/03 19:00:26;;;;;;;18.60;9.48;;;;;;;;;;5030561;28;20067;-60
2022/02/03 19:03:22;;;;;;;19.02;9.95;;;;;;;;;;5030742;28;20419;-58
2022/02/03 19:25:46;;;;;;;;;;;;;;;;;;5030525;28;20058;-60
2022/02/03 19:28:33;;;;;;;17.02;7.63;;;;;;;;;;5030068;28;20306;-61
2022/02/03 20:04:16;;;;;;;7.75;4.65;;;;;;;;;;5033504;28;20060;-61
2022/02/03 20:06:58;;;;;;;7.78;4.43;;;;;;;;;;5034471;28;20057;-59
2022/02/03 20:09:36;;;;;;;6.47;4.20;;;;;;;;;;5034123;28;20451;-61
2022/02/03 20:12:03;;;;;;;8.43;4.55;;;;;;;;;;5034143;28;20096;-59
2022/02/03 20:14:32;;;;;;;8.68;5.03;;;;;;;;;;5034077;28;20049;-60
2022/02/03 20:16:59;;;;;;;9.60;5.80;;;;;;;;;;5034440;28;20050;-57
2022/02/03 20:19:26;;;;;;;9.45;5.97;;;;;;;;;;5034015;28;20060;-59
2022/02/03 20:21:53;;;;;;;7.75;5.10;;;;;;;;;;5034046;28;20079;-60
2022/02/03 20:24:20;;;;;;;9.45;5.10;;;;;;;;;;5033803;28;20060;-57
2022/02/03 20:26:47;;;;;;;8.77;4.68;;;;;;;;;;5033504;28;20050;-58
2022/02/03 20:29:14;;;;;;;8.07;5.03;;;;;;;;;;5033937;28;20049;-58
2022/02/03 20:31:44;;;;;;;9.23;5.85;;;;;;;;;;5033343;28;20057;-59
2022/02/03 20:34:11;;;;;;;7.40;4.22;;;;;;;;;;5033492;28;20065;-59
2022/02/03 20:36:38;;;;;;;8.02;4.78;;;;;;;;;;5033514;28;20060;-60
2022/02/03 20:39:05;;;;;;;9.15;5.43;;;;;;;;;;5033304;28;20054;-58
2022/02/03 20:41:32;;;;;;;9.13;4.65;;;;;;;;;;5033858;28;20059;-59
2022/02/03 20:43:59;;;;;;;10.30;4.80;;;;;;;;;;5033270;28;20045;-58
2022/02/03 20:46:27;;;;;;;8.57;4.57;;;;;;;;;;5033380;28;20447;-60
2022/02/03 20:48:55;;;;;;;9.88;4.97;;;;;;;;;;5033401;28;20061;-59
2022/02/03 20:51:22;;;;;;;9.10;4.75;;;;;;;;;;5032972;28;20104;-60
2022/02/03 20:53:50;;;;;;;10.52;6.22;;;;;;;;;;5033002;28;20064;-59
2022/02/03 20:56:18;;;;;;;14.02;7.60;;;;;;;;;;5033152;28;20175;-57
2022/02/03 20:58:47;;;;;;;13.35;7.43;;;;;;;;;;5033098;28;20053;-58
2022/02/03 21:01:19;;;;;;;13.60;7.90;;;;;;;;;;5032319;28;20316;-60
2022/02/03 21:03:48;;;;;;;13.27;7.80;;;;;;;;;;5033129;28;20514;-60
2022/02/03 21:06:17;;;;;;;13.75;8.40;;;;;;;;;;5033210;28;20773;-59
2022/02/03 21:08:47;;;;;;;15.45;9.15;;;;;;;;;;5032889;28;20099;-60
2022/02/03 21:11:14;;;;;;;11.82;7.63;;;;;;;;;;5033417;28;20053;-57
2022/02/03 21:13:42;;;;;;;18.58;8.15;;;;;;;;;;5032919;28;20074;-60
2022/02/03 21:16:09;;;;;;;13.48;8.00;;;;;;;;;;5033198;28;20060;-59
2022/02/03 21:18:40;;;;;;;13.05;7.68;;;;;;;;;;5033104;28;20103;-60
2022/02/03 21:21:08;;;;;;;10.82;6.88;;;;;;;;;;5032679;28;20085;-57
2022/02/03 21:23:37;;;;;;;13.95;6.70;;;;;;;;;;5032638;28;20441;-60
2022/02/03 21:26:06;;;;;;;13.75;7.43;;;;;;;;;;5032740;28;20072;-60
2022/02/03 21:28:36;;;;;;;10.40;6.55;;;;;;;;;;5032469;28;20049;-60
2022/02/03 21:31:06;;;;;;;11.82;8.15;;;;;;;;;;5032549;28;20080;-65
2022/02/03 21:33:44;;;;;;;11.10;6.78;;;;;;;;;;5032923;28;20475;-63
2022/02/03 21:36:12;;;;;;;11.07;6.40;;;;;;;;;;5032994;28;20083;-68
2022/02/03 21:38:43;;;;;;;11.02;7.03;;;;;;;;;;5032359;28;20068;-64
2022/02/03 21:41:11;;;;;;;12.35;6.53;;;;;;;;;;5032487;28;20052;-64
2022/02/03 21:43:38;;;;;;;10.18;5.65;;;;;;;;;;5031900;28;20084;-60
2022/02/03 21:46:06;;;;;;;13.00;6.82;;;;;;;;;;5032027;28;20132;-60
2022/02/03 21:48:34;;;;;;;11.68;7.00;;;;;;;;;;5031887;28;20061;-60
2022/02/03 21:51:03;;;;;;;11.85;6.32;;;;;;;;;;5032122;28;20136;-60
2022/02/03 21:53:32;;;;;;;10.68;6.40;;;;;;;;;;5031951;28;20060;-59
2022/02/03 21:56:01;;;;;;;11.70;7.15;;;;;;;;;;5031947;28;20140;-60
2022/02/03 21:58:28;;;;;;;12.05;7.30;;;;;;;;;;5031781;28;20045;-60
2022/02/03 22:00:57;;;;;;;11.23;7.22;;;;;;;;;;5051249;22;20041;-64
2022/02/03 22:03:26;;;;;;;13.07;7.32;;;;;;;;;;5071299;28;20054;-64
2022/02/03 22:05:54;;;;;;;11.90;6.80;;;;;;;;;;5071156;28;20079;-64
2022/02/03 22:08:21;;;;;;;12.30;7.15;;;;;;;;;;5071094;28;20648;-64
2022/02/03 22:10:48;;;;;;;14.43;7.10;;;;;;;;;;5071106;28;20052;-64
2022/02/03 22:13:16;;;;;;;12.50;7.13;;;;;;;;;;5071409;28;20048;-64
2022/02/03 22:15:43;;;;;;;12.27;7.22;;;;;;;;;;5071169;28;20161;-64
2022/02/03 22:18:14;;;;;;;13.88;9.23;;;;;;;;;;5070928;28;20098;-63
2022/02/03 22:20:48;;;;;;;;;;;;;;;;;;5071632;28;20416;-64
2022/02/03 22:23:27;;;;;;;14.02;8.48;;;;;;;;;;5071076;28;19921;-64
2022/02/03 22:29:07;;;;;;;16.52;8.23;;;;;;;;;;5071407;28;20047;-64
2022/02/03 22:42:35;;;;;;;13.55;8.02;;;;;;;;;;5070626;28;20055;-64
2022/02/03 22:45:16;;;;;;;14.75;8.32;;;;;;;;;;5070672;28;20139;-64
2022/02/03 22:47:59;;;;;;;13.10;7.55;;;;;;;;;;5070266;28;20052;-64
2022/02/03 22:50:26;;;;;;;15.40;8.38;;;;;;;;;;5070818;28;20098;-64
2022/02/03 22:52:53;;;;;;;16.45;8.15;;;;;;;;;;5071120;28;20080;-63
2022/02/03 22:55:20;;;;;;;17.40;7.57;;;;;;;;;;5070470;28;20064;-64
2022/02/03 22:58:02;;;;;;;12.30;7.55;;;;;;;;;;5070376;28;20049;-64
2022/02/03 23:00:58;;;;;;;12.35;7.35;;;;;;;;;;5070634;28;20131;-64
2022/02/03 23:03:25;;;;;;;13.27;6.93;;;;;;;;;;5070418;28;20102;-64
2022/02/03 23:05:52;;;;;;;13.68;8.65;;;;;;;;;;5070052;28;20048;-64
2022/02/03 23:08:23;;;;;;;20.17;8.77;;;;;;;;;;5070774;28;20326;-64
2022/02/03 23:11:04;;;;;;;12.27;8.10;;;;;;;;;;5070245;28;20049;-64
2022/02/03 23:14:00;;;;;;;13.13;7.28;;;;;;;;;;5070491;28;20056;-64
2022/02/03 23:22:15;;;;;;;10.05;5.43;;;;;;;;;;5008124;28;20092;-64
2022/02/03 23:24:45;;;;;;;8.85;4.90;;;;;;;;;;5055865;28;20051;-64
2022/02/03 23:27:33;;;;;;;9.55;5.85;;;;;;;;;;5070382;28;20204;-64
2022/02/03 23:30:01;;;;;;;8.82;5.78;;;;;;;;;;5069709;28;20131;-64
2022/02/03 23:32:30;;;;;;;8.63;5.00;;;;;;;;;;5070057;28;20051;-64
2022/02/03 23:35:05;;;;;;;6.93;3.97;;;;;;;;;;5070326;28;20477;-64
2022/02/03 23:37:36;;;;;;;10.35;5.10;;;;;;;;;;5070193;28;20492;-64
2022/02/03 23:40:10;;;;;;;8.10;4.50;;;;;;;;;;5069985;28;20080;-64
2022/02/03 23:45:31;;;;;;;;;;;;;;;;;;5072111;28;20044;-64
